sensor_id;sensor_type;location;lat;lon;timestamp;pressure;altitude;pressure_sealevel;temperature;humidity
71107;BME280;58763;47.982;11.516;2023-01-28T00:00:04;94388.94;;;-0.59;80.24
71107;BME280;58763;47.982;11.516;2023-01-28T00:02:31;94382.69;;;-0.72;80.00
71107;BME280;58763;47.982;11.516;2023-01-28T00:04:57;94385.56;;;-0.73;79.82
71107;BME280;58763;47.982;11.516;2023-01-28T00:07:22;94383.91;;;-0.74;80.62
71107;BME280;58763;47.982;11.516;2023-01-28T00:09:49;94382.94;;;-0.80;80.50
71107;BME280;58763;47.982;11.516;2023-01-28T00:12:15;94387.97;;;-0.72;80.33
71107;BME280;58763;47.982;11.516;2023-01-28T00:14:40;94387.56;;;-0.68;80.08
71107;BME280;58763;47.982;11.516;2023-01-28T00:17:06;94385.34;;;-0.72;80.24
71107;BME280;58763;47.982;11.516;2023-01-28T00:19:31;94386.97;;;-0.71;80.37
71107;BME280;58763;47.982;11.516;2023-01-28T00:21:57;94381.44;;;-0.69;80.29
71107;BME280;58763;47.982;11.516;2023-01-28T00:24:22;94389.38;;;-0.62;80.30
71107;BME280;58763;47.982;11.516;2023-01-28T00:26:48;94380.63;;;-0.70;79.87
71107;BME280;58763;47.982;11.516;2023-01-28T00:29:14;94384.50;;;-0.65;79.90
71107;BME280;58763;47.982;11.516;2023-01-28T00:31:40;94382.81;;;-0.60;79.55
71107;BME280;58763;47.982;11.516;2023-01-28T00:34:06;94382.03;;;-0.67;80.47
71107;BME280;58763;47.982;11.516;2023-01-28T00:36:32;94388.16;;;-0.66;80.00
71107;BME280;58763;47.982;11.516;2023-01-28T00:38:59;94385.88;;;-0.56;79.96
71107;BME280;58763;47.982;11.516;2023-01-28T00:41:27;94382.25;;;-0.68;79.97
71107;BME280;58763;47.982;11.516;2023-01-28T00:43:54;94382.50;;;-0.77;79.85
71107;BME280;58763;47.982;11.516;2023-01-28T00:46:21;94380.44;;;-0.75;79.76
71107;BME280;58763;47.982;11.516;2023-01-28T00:48:47;94387.16;;;-0.72;80.13
71107;BME280;58763;47.982;11.516;2023-01-28T00:51:15;94377.38;;;-0.72;80.08
71107;BME280;58763;47.982;11.516;2023-01-28T00:53:41;94389.81;;;-0.65;79.78
71107;BME280;58763;47.982;11.516;2023-01-28T00:56:11;94383.69;;;-0.66;78.95
71107;BME280;58763;47.982;11.516;2023-01-28T00:58:37;94389.00;;;-0.66;79.49
71107;BME280;58763;47.982;11.516;2023-01-28T01:01:11;94383.13;;;-0.81;79.67
71107;BME280;58763;47.982;11.516;2023-01-28T01:03:37;94382.84;;;-0.66;79.68
71107;BME280;58763;47.982;11.516;2023-01-28T01:06:03;94382.03;;;-0.67;79.81
71107;BME280;58763;47.982;11.516;2023-01-28T01:08:29;94390.63;;;-0.72;79.59
71107;BME280;58763;47.982;11.516;2023-01-28T01:11:00;94387.75;;;-0.70;79.47
71107;BME280;58763;47.982;11.516;2023-01-28T01:13:26;94391.06;;;-0.75;79.18
71107;BME280;58763;47.982;11.516;2023-01-28T01:16:01;94389.44;;;-0.76;79.26
71107;BME280;58763;47.982;11.516;2023-01-28T01:18:26;94392.69;;;-0.74;79.22
71107;BME280;58763;47.982;11.516;2023-01-28T01:20:52;94391.72;;;-0.86;79.77
71107;BME280;58763;47.982;11.516;2023-01-28T01:23:24;94396.03;;;-0.85;79.72
71107;BME280;58763;47.982;11.516;2023-01-28T01:25:50;94392.75;;;-0.87;80.06
71107;BME280;58763;47.982;11.516;2023-01-28T01:28:16;94393.16;;;-0.83;80.00
71107;BME280;58763;47.982;11.516;2023-01-28T01:30:42;94399.91;;;-0.87;79.83
71107;BME280;58763;47.982;11.516;2023-01-28T01:33:07;94392.13;;;-0.89;80.25
71107;BME280;58763;47.982;11.516;2023-01-28T01:35:33;94393.00;;;-0.95;80.53
71107;BME280;58763;47.982;11.516;2023-01-28T01:37:58;94395.22;;;-0.92;80.57
71107;BME280;58763;47.982;11.516;2023-01-28T01:40:24;94392.75;;;-0.87;80.42
71107;BME280;58763;47.982;11.516;2023-01-28T01:42:49;94402.59;;;-0.94;80.53
71107;BME280;58763;47.982;11.516;2023-01-28T01:45:15;94401.38;;;-0.91;80.54
71107;BME280;58763;47.982;11.516;2023-01-28T01:48:10;94401.78;;;-0.94;80.73
71107;BME280;58763;47.982;11.516;2023-01-28T01:50:42;94405.63;;;-0.90;80.52
71107;BME280;58763;47.982;11.516;2023-01-28T01:53:16;94408.25;;;-0.84;80.33
71107;BME280;58763;47.982;11.516;2023-01-28T01:55:46;94411.97;;;-0.91;80.34
71107;BME280;58763;47.982;11.516;2023-01-28T01:58:15;94412.56;;;-0.89;80.21
71107;BME280;58763;47.982;11.516;2023-01-28T02:00:41;94405.41;;;-0.82;79.96
71107;BME280;58763;47.982;11.516;2023-01-28T02:03:08;94409.28;;;-0.85;79.44
71107;BME280;58763;47.982;11.516;2023-01-28T02:05:34;94407.06;;;-0.88;80.11
71107;BME280;58763;47.982;11.516;2023-01-28T02:08:00;94414.16;;;-0.82;80.06
71107;BME280;58763;47.982;11.516;2023-01-28T02:10:45;94409.66;;;-0.81;80.30
71107;BME280;58763;47.982;11.516;2023-01-28T02:13:14;94407.88;;;-0.87;80.50
71107;BME280;58763;47.982;11.516;2023-01-28T02:15:41;94408.06;;;-0.82;80.14
71107;BME280;58763;47.982;11.516;2023-01-28T02:18:08;94403.97;;;-0.85;79.56
71107;BME280;58763;47.982;11.516;2023-01-28T02:20:51;94416.22;;;-0.84;79.88
71107;BME280;58763;47.982;11.516;2023-01-28T02:32:19;94413.59;;;-0.90;80.39
71107;BME280;58763;47.982;11.516;2023-01-28T02:35:03;94419.47;;;-0.82;80.06
71107;BME280;58763;47.982;11.516;2023-01-28T02:37:45;94421.13;;;-0.81;79.62
71107;BME280;58763;47.982;11.516;2023-01-28T02:40:20;94428.88;;;-0.86;79.86
71107;BME280;58763;47.982;11.516;2023-01-28T02:42:47;94421.16;;;-0.87;79.83
71107;BME280;58763;47.982;11.516;2023-01-28T02:45:25;94421.72;;;-0.79;79.89
71107;BME280;58763;47.982;11.516;2023-01-28T02:48:11;94416.22;;;-0.84;79.86
71107;BME280;58763;47.982;11.516;2023-01-28T02:50:59;94416.63;;;-0.80;79.91
71107;BME280;58763;47.982;11.516;2023-01-28T02:53:39;94422.13;;;-0.82;79.74
71107;BME280;58763;47.982;11.516;2023-01-28T03:05:04;94428.09;;;-0.93;79.39
71107;BME280;58763;47.982;11.516;2023-01-28T03:07:34;94430.56;;;-0.98;79.59
71107;BME280;58763;47.982;11.516;2023-01-28T03:10:02;94429.34;;;-1.02;79.62
71107;BME280;58763;47.982;11.516;2023-01-28T03:12:31;94425.50;;;-1.19;80.38
71107;BME280;58763;47.982;11.516;2023-01-28T03:15:23;94433.69;;;-1.20;80.50
71107;BME280;58763;47.982;11.516;2023-01-28T03:18:19;94429.19;;;-1.20;80.51
71107;BME280;58763;47.982;11.516;2023-01-28T03:21:09;94429.81;;;-1.24;80.74
71107;BME280;58763;47.982;11.516;2023-01-28T03:27:11;94443.28;;;-1.26;80.89
71107;BME280;58763;47.982;11.516;2023-01-28T03:29:59;94436.78;;;-1.36;80.29
71107;BME280;58763;47.982;11.516;2023-01-28T03:32:47;94441.09;;;-1.55;81.00
71107;BME280;58763;47.982;11.516;2023-01-28T03:35:33;94443.94;;;-1.50;81.00
71107;BME280;58763;47.982;11.516;2023-01-28T03:38:19;94442.72;;;-1.54;81.37
71107;BME280;58763;47.982;11.516;2023-01-28T03:41:00;94442.72;;;-1.80;82.18
71107;BME280;58763;47.982;11.516;2023-01-28T03:43:32;94446.81;;;-1.78;82.21
71107;BME280;58763;47.982;11.516;2023-01-28T03:45:59;94452.50;;;-1.68;82.03
71107;BME280;58763;47.982;11.516;2023-01-28T03:48:26;94455.38;;;-1.69;82.34
71107;BME280;58763;47.982;11.516;2023-01-28T03:50:54;94453.72;;;-1.70;81.95
71107;BME280;58763;47.982;11.516;2023-01-28T03:53:21;94454.97;;;-1.73;82.19
71107;BME280;58763;47.982;11.516;2023-01-28T03:55:49;94453.72;;;-1.70;81.81
71107;BME280;58763;47.982;11.516;2023-01-28T03:58:17;94455.78;;;-1.72;82.30
71107;BME280;58763;47.982;11.516;2023-01-28T04:00:43;94455.97;;;-1.61;82.27
71107;BME280;58763;47.982;11.516;2023-01-28T04:03:10;94464.16;;;-1.75;81.83
71107;BME280;58763;47.982;11.516;2023-01-28T04:05:44;94467.41;;;-1.73;82.18
71107;BME280;58763;47.982;11.516;2023-01-28T04:08:10;94464.34;;;-1.77;82.45
71107;BME280;58763;47.982;11.516;2023-01-28T04:10:37;94469.41;;;-1.82;82.26
71107;BME280;58763;47.982;11.516;2023-01-28T04:13:04;94465.16;;;-1.83;82.25
71107;BME280;58763;47.982;11.516;2023-01-28T04:15:30;94472.50;;;-1.91;82.81
71107;BME280;58763;47.982;11.516;2023-01-28T04:17:55;94467.59;;;-1.81;82.88
71107;BME280;58763;47.982;11.516;2023-01-28T04:20:21;94470.66;;;-1.91;83.06
71107;BME280;58763;47.982;11.516;2023-01-28T04:22:47;94474.75;;;-1.75;82.96
71107;BME280;58763;47.982;11.516;2023-01-28T04:25:12;94476.16;;;-1.79;82.99
71107;BME280;58763;47.982;11.516;2023-01-28T04:27:38;94477.59;;;-1.77;82.86
71107;BME280;58763;47.982;11.516;2023-01-28T04:30:04;94472.72;;;-1.73;83.01
71107;BME280;58763;47.982;11.516;2023-01-28T04:32:30;94478.81;;;-1.53;82.08
71107;BME280;58763;47.982;11.516;2023-01-28T04:34:56;94477.81;;;-1.52;82.51
71107;BME280;58763;47.982;11.516;2023-01-28T04:37:21;94480.47;;;-1.52;81.94
71107;BME280;58763;47.982;11.516;2023-01-28T04:39:47;94473.31;;;-1.45;81.22
71107;BME280;58763;47.982;11.516;2023-01-28T04:42:12;94479.03;;;-1.48;81.52
71107;BME280;58763;47.982;11.516;2023-01-28T04:44:38;94485.34;;;-1.49;81.94
71107;BME280;58763;47.982;11.516;2023-01-28T04:47:03;94489.84;;;-1.43;81.69
71107;BME280;58763;47.982;11.516;2023-01-28T04:49:29;94483.09;;;-1.39;81.44
71107;BME280;58763;47.982;11.516;2023-01-28T04:51:54;94484.31;;;-1.35;81.10
71107;BME280;58763;47.982;11.516;2023-01-28T04:54:20;94483.50;;;-1.29;81.42
71107;BME280;58763;47.982;11.516;2023-01-28T04:56:45;94492.28;;;-1.28;80.81
71107;BME280;58763;47.982;11.516;2023-01-28T04:59:11;94488.59;;;-1.34;80.61
71107;BME280;58763;47.982;11.516;2023-01-28T05:01:36;94497.78;;;-1.43;81.04
71107;BME280;58763;47.982;11.516;2023-01-28T05:04:03;94496.34;;;-1.32;80.83
71107;BME280;58763;47.982;11.516;2023-01-28T05:06:30;94499.00;;;-1.39;80.99
71107;BME280;58763;47.982;11.516;2023-01-28T05:08:56;94499.22;;;-1.41;81.28
71107;BME280;58763;47.982;11.516;2023-01-28T05:11:22;94499.63;;;-1.37;81.56
71107;BME280;58763;47.982;11.516;2023-01-28T05:13:48;94513.28;;;-1.47;81.68
71107;BME280;58763;47.982;11.516;2023-01-28T05:16:14;94498.00;;;-1.38;81.19
71107;BME280;58763;47.982;11.516;2023-01-28T05:18:39;94502.69;;;-1.33;81.57
71107;BME280;58763;47.982;11.516;2023-01-28T05:21:05;94507.16;;;-1.34;81.53
71107;BME280;58763;47.982;11.516;2023-01-28T05:23:31;94506.75;;;-1.38;81.64
71107;BME280;58763;47.982;11.516;2023-01-28T05:25:56;94500.81;;;-1.33;81.42
71107;BME280;58763;47.982;11.516;2023-01-28T05:28:22;94511.25;;;-1.38;81.44
71107;BME280;58763;47.982;11.516;2023-01-28T05:30:47;94504.53;;;-1.34;81.70
71107;BME280;58763;47.982;11.516;2023-01-28T05:33:13;94511.44;;;-1.33;80.94
71107;BME280;58763;47.982;11.516;2023-01-28T05:35:39;94514.53;;;-1.36;81.38
71107;BME280;58763;47.982;11.516;2023-01-28T05:38:04;94507.97;;;-1.40;81.54
71107;BME280;58763;47.982;11.516;2023-01-28T05:40:30;94518.59;;;-1.40;81.32
71107;BME280;58763;47.982;11.516;2023-01-28T05:42:55;94524.91;;;-1.41;81.49
71107;BME280;58763;47.982;11.516;2023-01-28T05:45:21;94528.19;;;-1.39;81.52
71107;BME280;58763;47.982;11.516;2023-01-28T05:47:47;94525.94;;;-1.35;81.36
71107;BME280;58763;47.982;11.516;2023-01-28T05:50:13;94532.47;;;-1.38;81.47
71107;BME280;58763;47.982;11.516;2023-01-28T05:52:39;94528.78;;;-1.37;81.39
71107;BME280;58763;47.982;11.516;2023-01-28T05:55:05;94528.38;;;-1.27;81.49
71107;BME280;58763;47.982;11.516;2023-01-28T05:57:31;94538.97;;;-1.21;81.41
71107;BME280;58763;47.982;11.516;2023-01-28T05:59:56;94534.91;;;-1.23;81.41
71107;BME280;58763;47.982;11.516;2023-01-28T06:02:22;94542.66;;;-1.09;81.22
71107;BME280;58763;47.982;11.516;2023-01-28T06:04:47;94541.22;;;-1.11;81.18
71107;BME280;58763;47.982;11.516;2023-01-28T06:07:13;94541.44;;;-1.13;80.63
71107;BME280;58763;47.982;11.516;2023-01-28T06:09:40;94538.59;;;-1.18;80.84
71107;BME280;58763;47.982;11.516;2023-01-28T06:12:06;94544.31;;;-1.08;80.77
71107;BME280;58763;47.982;11.516;2023-01-28T06:14:31;94558.56;;;-1.09;80.67
71107;BME280;58763;47.982;11.516;2023-01-28T06:16:58;94552.06;;;-1.13;80.81
71107;BME280;58763;47.982;11.516;2023-01-28T06:19:24;94545.09;;;-1.14;80.68
71107;BME280;58763;47.982;11.516;2023-01-28T06:21:50;94550.22;;;-1.12;80.96
71107;BME280;58763;47.982;11.516;2023-01-28T06:24:16;94552.03;;;-1.26;80.93
71107;BME280;58763;47.982;11.516;2023-01-28T06:26:42;94559.41;;;-1.28;80.81
71107;BME280;58763;47.982;11.516;2023-01-28T06:29:07;94553.28;;;-1.28;81.50
71107;BME280;58763;47.982;11.516;2023-01-28T06:31:33;94560.22;;;-1.27;80.94
71107;BME280;58763;47.982;11.516;2023-01-28T06:33:58;94563.47;;;-1.25;81.03
71107;BME280;58763;47.982;11.516;2023-01-28T06:36:24;94570.63;;;-1.26;81.22
71107;BME280;58763;47.982;11.516;2023-01-28T06:38:50;94574.09;;;-1.19;80.77
71107;BME280;58763;47.982;11.516;2023-01-28T06:41:15;94569.59;;;-1.31;81.13
71107;BME280;58763;47.982;11.516;2023-01-28T06:43:41;94575.94;;;-1.39;81.40
71107;BME280;58763;47.982;11.516;2023-01-28T06:46:06;94567.97;;;-1.46;82.24
71107;BME280;58763;47.982;11.516;2023-01-28T06:48:32;94569.41;;;-1.43;82.31
71107;BME280;58763;47.982;11.516;2023-01-28T06:50:58;94575.31;;;-1.54;81.67
71107;BME280;58763;47.982;11.516;2023-01-28T06:53:23;94576.72;;;-1.65;82.24
71107;BME280;58763;47.982;11.516;2023-01-28T06:55:48;94573.06;;;-1.57;82.24
71107;BME280;58763;47.982;11.516;2023-01-28T06:58:14;94577.31;;;-1.56;82.33
71107;BME280;58763;47.982;11.516;2023-01-28T07:00:40;94571.84;;;-1.48;82.64
71107;BME280;58763;47.982;11.516;2023-01-28T07:03:05;94583.06;;;-1.40;82.22
71107;BME280;58763;47.982;11.516;2023-01-28T07:05:31;94583.66;;;-1.64;82.94
71107;BME280;58763;47.982;11.516;2023-01-28T07:07:56;94579.97;;;-1.69;83.62
71107;BME280;58763;47.982;11.516;2023-01-28T07:10:22;94588.13;;;-1.64;83.07
71107;BME280;58763;47.982;11.516;2023-01-28T07:12:48;94588.50;;;-1.80;83.60
71107;BME280;58763;47.982;11.516;2023-01-28T07:15:14;94596.47;;;-1.74;84.00
71107;BME280;58763;47.982;11.516;2023-01-28T07:17:40;94597.09;;;-1.65;83.52
71107;BME280;58763;47.982;11.516;2023-01-28T07:20:07;94589.34;;;-1.60;83.54
71107;BME280;58763;47.982;11.516;2023-01-28T07:22:33;94590.00;;;-1.45;83.05
71107;BME280;58763;47.982;11.516;2023-01-28T07:24:59;94597.13;;;-1.52;82.45
71107;BME280;58763;47.982;11.516;2023-01-28T07:27:26;94598.97;;;-1.53;82.54
71107;BME280;58763;47.982;11.516;2023-01-28T07:29:51;94595.09;;;-1.57;82.68
71107;BME280;58763;47.982;11.516;2023-01-28T07:32:17;94605.31;;;-1.47;82.59
71107;BME280;58763;47.982;11.516;2023-01-28T07:34:43;94603.06;;;-1.50;82.87
71107;BME280;58763;47.982;11.516;2023-01-28T07:37:09;94610.41;;;-1.46;82.73
71107;BME280;58763;47.982;11.516;2023-01-28T07:39:34;94608.19;;;-1.35;82.55
71107;BME280;58763;47.982;11.516;2023-01-28T07:42:00;94608.38;;;-1.37;82.73
71107;BME280;58763;47.982;11.516;2023-01-28T07:44:26;94615.72;;;-1.32;82.59
71107;BME280;58763;47.982;11.516;2023-01-28T07:46:52;94620.22;;;-1.26;82.06
71107;BME280;58763;47.982;11.516;2023-01-28T07:49:18;94624.09;;;-1.29;82.16
71107;BME280;58763;47.982;11.516;2023-01-28T07:51:44;94622.66;;;-1.25;82.32
71107;BME280;58763;47.982;11.516;2023-01-28T07:54:12;94620.63;;;-1.23;81.75
71107;BME280;58763;47.982;11.516;2023-01-28T07:56:37;94616.97;;;-1.28;81.23
71107;BME280;58763;47.982;11.516;2023-01-28T07:59:03;94631.03;;;-1.28;81.86
71107;BME280;58763;47.982;11.516;2023-01-28T08:01:30;94628.78;;;-1.31;81.94
71107;BME280;58763;47.982;11.516;2023-01-28T08:03:55;94636.75;;;-1.24;82.38
71107;BME280;58763;47.982;11.516;2023-01-28T08:06:21;94630.22;;;-1.15;81.83
71107;BME280;58763;47.982;11.516;2023-01-28T08:08:46;94630.25;;;-0.96;81.21
71107;BME280;58763;47.982;11.516;2023-01-28T08:11:13;94637.78;;;-0.93;80.78
71107;BME280;58763;47.982;11.516;2023-01-28T08:13:38;94645.53;;;-0.98;81.14
71107;BME280;58763;47.982;11.516;2023-01-28T08:16:04;94648.00;;;-0.96;80.79
71107;BME280;58763;47.982;11.516;2023-01-28T08:18:30;94654.94;;;-0.95;81.04
71107;BME280;58763;47.982;11.516;2023-01-28T08:20:57;94653.31;;;-0.83;80.26
71107;BME280;58763;47.982;11.516;2023-01-28T08:23:23;94645.34;;;-0.96;81.01
71107;BME280;58763;47.982;11.516;2023-01-28T08:25:52;94654.53;;;-0.86;80.61
71107;BME280;58763;47.982;11.516;2023-01-28T08:28:18;94651.25;;;-0.75;80.58
71107;BME280;58763;47.982;11.516;2023-01-28T08:30:45;94666.19;;;-0.87;80.63
71107;BME280;58763;47.982;11.516;2023-01-28T08:33:11;94667.19;;;-0.88;80.41
71107;BME280;58763;47.982;11.516;2023-01-28T08:35:38;94664.13;;;-0.91;80.18
71107;BME280;58763;47.982;11.516;2023-01-28T08:38:05;94668.41;;;-0.97;80.59
71107;BME280;58763;47.982;11.516;2023-01-28T08:40:32;94665.16;;;-0.92;80.59
71107;BME280;58763;47.982;11.516;2023-01-28T08:42:58;94672.28;;;-0.93;80.59
71107;BME280;58763;47.982;11.516;2023-01-28T08:45:25;94671.88;;;-0.90;80.73
71107;BME280;58763;47.982;11.516;2023-01-28T08:47:59;94677.59;;;-0.86;80.93
71107;BME280;58763;47.982;11.516;2023-01-28T08:50:27;94675.97;;;-0.81;80.41
71107;BME280;58763;47.982;11.516;2023-01-28T08:52:58;94677.41;;;-0.85;80.64
71107;BME280;58763;47.982;11.516;2023-01-28T08:55:24;94675.34;;;-1.02;80.71
71107;BME280;58763;47.982;11.516;2023-01-28T08:57:50;94673.69;;;-1.16;81.82
71107;BME280;58763;47.982;11.516;2023-01-28T09:00:16;94679.03;;;-1.10;83.00
71107;BME280;58763;47.982;11.516;2023-01-28T09:02:42;94679.03;;;-0.97;84.28
71107;BME280;58763;47.982;11.516;2023-01-28T09:05:07;94686.59;;;-0.87;83.08
71107;BME280;58763;47.982;11.516;2023-01-28T09:07:34;94684.13;;;-0.95;82.18
71107;BME280;58763;47.982;11.516;2023-01-28T09:09:59;94685.78;;;-0.88;81.74
71107;BME280;58763;47.982;11.516;2023-01-28T09:12:25;94689.25;;;-0.68;81.24
71107;BME280;58763;47.982;11.516;2023-01-28T09:14:51;94688.84;;;-0.64;80.20
71107;BME280;58763;47.982;11.516;2023-01-28T09:17:17;94691.31;;;-0.56;80.37
71107;BME280;58763;47.982;11.516;2023-01-28T09:19:43;94689.25;;;-0.54;80.24
71107;BME280;58763;47.982;11.516;2023-01-28T09:22:08;94704.78;;;-0.51;80.23
71107;BME280;58763;47.982;11.516;2023-01-28T09:24:34;94693.94;;;-0.50;79.74
71107;BME280;58763;47.982;11.516;2023-01-28T09:26:59;94696.19;;;-0.53;80.20
71107;BME280;58763;47.982;11.516;2023-01-28T09:29:25;94698.03;;;-0.54;79.83
71107;BME280;58763;47.982;11.516;2023-01-28T09:31:51;94697.00;;;-0.59;79.76
71107;BME280;58763;47.982;11.516;2023-01-28T09:34:16;94700.28;;;-0.57;79.71
71107;BME280;58763;47.982;11.516;2023-01-28T09:36:41;94702.53;;;-0.54;79.69
71107;BME280;58763;47.982;11.516;2023-01-28T09:39:14;94700.25;;;-0.44;79.70
71107;BME280;58763;47.982;11.516;2023-01-28T09:44:20;94701.50;;;-0.34;79.71
71107;BME280;58763;47.982;11.516;2023-01-28T09:46:47;94701.06;;;-0.24;79.91
71107;BME280;58763;47.982;11.516;2023-01-28T09:49:33;94690.03;;;-0.15;79.18
71107;BME280;58763;47.982;11.516;2023-01-28T09:51:59;94685.88;;;0.03;78.29
71107;BME280;58763;47.982;11.516;2023-01-28T09:57:20;94683.03;;;-0.03;77.83
71107;BME280;58763;47.982;11.516;2023-01-28T09:59:48;94679.75;;;0.02;77.56
71107;BME280;58763;47.982;11.516;2023-01-28T10:05:38;94688.94;;;0.06;77.21
71107;BME280;58763;47.982;11.516;2023-01-28T10:11:40;94682.59;;;0.07;77.08
71107;BME280;58763;47.982;11.516;2023-01-28T10:16:53;94678.03;;;0.27;77.08
71107;BME280;58763;47.982;11.516;2023-01-28T10:19:36;94669.38;;;0.38;77.16
71107;BME280;58763;47.982;11.516;2023-01-28T10:22:12;94668.91;;;0.54;77.05
71107;BME280;58763;47.982;11.516;2023-01-28T10:24:45;94668.88;;;0.61;76.25
71107;BME280;58763;47.982;11.516;2023-01-28T10:27:19;94668.41;;;0.70;75.46
71107;BME280;58763;47.982;11.516;2023-01-28T10:29:47;94661.03;;;0.73;75.43
71107;BME280;58763;47.982;11.516;2023-01-28T10:32:32;94672.84;;;0.83;76.20
71107;BME280;58763;47.982;11.516;2023-01-28T10:35:00;94654.59;;;0.87;76.27
71107;BME280;58763;47.982;11.516;2023-01-28T10:37:30;94660.97;;;0.86;76.19
71107;BME280;58763;47.982;11.516;2023-01-28T10:39:58;94660.13;;;0.85;75.62
71107;BME280;58763;47.982;11.516;2023-01-28T10:44:57;94649.38;;;1.05;74.67
71107;BME280;58763;47.982;11.516;2023-01-28T10:48:18;94653.88;;;1.04;75.06
71107;BME280;58763;47.982;11.516;2023-01-28T10:50:21;94657.91;;;1.13;75.65
71107;BME280;58763;47.982;11.516;2023-01-28T10:53:17;94649.69;;;1.15;74.91
71107;BME280;58763;47.982;11.516;2023-01-28T10:55:55;94659.44;;;1.27;74.58
71107;BME280;58763;47.982;11.516;2023-01-28T10:58:26;94651.97;;;1.36;73.45
71107;BME280;58763;47.982;11.516;2023-01-28T11:00:56;94654.63;;;1.36;73.09
71107;BME280;58763;47.982;11.516;2023-01-28T11:03:24;94649.38;;;1.29;72.75
71107;BME280;58763;47.982;11.516;2023-01-28T11:05:54;94645.94;;;1.22;72.30
71107;BME280;58763;47.982;11.516;2023-01-28T11:08:22;94652.09;;;1.23;72.75
71107;BME280;58763;47.982;11.516;2023-01-28T11:10:49;94652.16;;;1.16;73.62
71107;BME280;58763;47.982;11.516;2023-01-28T11:13:20;94651.88;;;1.24;73.40
71107;BME280;58763;47.982;11.516;2023-01-28T11:16:00;94649.97;;;1.31;73.80
71107;BME280;58763;47.982;11.516;2023-01-28T11:18:30;94657.59;;;1.28;73.96
71107;BME280;58763;47.982;11.516;2023-01-28T11:21:02;94655.94;;;1.27;73.73
71107;BME280;58763;47.982;11.516;2023-01-28T11:23:32;94654.94;;;1.21;72.52
71107;BME280;58763;47.982;11.516;2023-01-28T11:28:26;94648.25;;;1.19;72.80
71107;BME280;58763;47.982;11.516;2023-01-28T11:30:53;94657.06;;;1.13;72.25
71107;BME280;58763;47.982;11.516;2023-01-28T11:33:40;94657.06;;;1.13;72.66
71107;BME280;58763;47.982;11.516;2023-01-28T11:36:14;94659.97;;;1.11;72.73
71107;BME280;58763;47.982;11.516;2023-01-28T11:41:13;94667.84;;;1.00;74.53
71107;BME280;58763;47.982;11.516;2023-01-28T11:43:40;94665.00;;;0.95;72.93
71107;BME280;58763;47.982;11.516;2023-01-28T11:49:35;94668.06;;;1.23;73.46
71107;BME280;58763;47.982;11.516;2023-01-28T12:03:42;94653.75;;;1.67;71.73
71107;BME280;58763;47.982;11.516;2023-01-28T12:14:57;94651.31;;;1.65;69.79
71107;BME280;58763;47.982;11.516;2023-01-28T12:20:27;94649.84;;;1.69;71.14
71107;BME280;58763;47.982;11.516;2023-01-28T12:23:11;94656.09;;;1.81;71.12
71107;BME280;58763;47.982;11.516;2023-01-28T12:28:29;94658.16;;;1.79;71.30
71107;BME280;58763;47.982;11.516;2023-01-28T12:31:30;94654.28;;;1.75;70.78
71107;BME280;58763;47.982;11.516;2023-01-28T12:42:20;94655.41;;;1.68;69.31
71107;BME280;58763;47.982;11.516;2023-01-28T12:45:00;94669.06;;;1.53;70.43
71107;BME280;58763;47.982;11.516;2023-01-28T12:47:38;94664.75;;;1.52;70.99
71107;BME280;58763;47.982;11.516;2023-01-28T12:52:47;94659.91;;;1.42;72.42
71107;BME280;58763;47.982;11.516;2023-01-28T12:55:35;94672.22;;;1.44;71.77
71107;BME280;58763;47.982;11.516;2023-01-28T12:58:04;94668.31;;;1.46;71.92
71107;BME280;58763;47.982;11.516;2023-01-28T13:00:33;94662.31;;;1.51;71.72
71107;BME280;58763;47.982;11.516;2023-01-28T13:05:49;94670.38;;;1.44;71.76
71107;BME280;58763;47.982;11.516;2023-01-28T13:10:47;94665.97;;;1.56;71.54
71107;BME280;58763;47.982;11.516;2023-01-28T13:13:34;94661.91;;;1.47;71.02
71107;BME280;58763;47.982;11.516;2023-01-28T13:16:02;94666.88;;;1.44;71.44
71107;BME280;58763;47.982;11.516;2023-01-28T13:21:13;94664.06;;;1.38;71.78
71107;BME280;58763;47.982;11.516;2023-01-28T13:23:47;94671.97;;;1.45;72.21
71107;BME280;58763;47.982;11.516;2023-01-28T13:28:46;94674.44;;;1.47;71.61
71107;BME280;58763;47.982;11.516;2023-01-28T13:31:14;94676.88;;;1.48;72.77
71107;BME280;58763;47.982;11.516;2023-01-28T13:34:04;94672.69;;;1.34;71.45
71107;BME280;58763;47.982;11.516;2023-01-28T13:36:32;94681.56;;;1.28;72.01
71107;BME280;58763;47.982;11.516;2023-01-28T13:41:37;94680.19;;;1.19;72.28
71107;BME280;58763;47.982;11.516;2023-01-28T13:44:02;94686.53;;;0.87;73.65
71107;BME280;58763;47.982;11.516;2023-01-28T13:46:29;94683.53;;;1.08;72.83
71107;BME280;58763;47.982;11.516;2023-01-28T13:48:57;94687.91;;;0.64;73.40
71107;BME280;58763;47.982;11.516;2023-01-28T13:51:27;94691.72;;;0.82;73.48
71107;BME280;58763;47.982;11.516;2023-01-28T13:54:04;94693.31;;;0.83;73.58
71107;BME280;58763;47.982;11.516;2023-01-28T14:08:28;94711.63;;;0.66;71.72
71107;BME280;58763;47.982;11.516;2023-01-28T14:18:55;94718.94;;;0.77;72.93
71107;BME280;58763;47.982;11.516;2023-01-28T14:21:24;94719.94;;;0.83;72.99
71107;BME280;58763;47.982;11.516;2023-01-28T14:23:53;94712.13;;;0.88;73.08
71107;BME280;58763;47.982;11.516;2023-01-28T14:32:28;94720.72;;;0.90;73.97
71107;BME280;58763;47.982;11.516;2023-01-28T14:34:57;94715.63;;;0.88;73.01
71107;BME280;58763;47.982;11.516;2023-01-28T14:37:28;94725.63;;;0.93;71.95
71107;BME280;58763;47.982;11.516;2023-01-28T14:40:06;94731.44;;;0.77;72.22
71107;BME280;58763;47.982;11.516;2023-01-28T14:42:38;94728.81;;;0.70;72.88
71107;BME280;58763;47.982;11.516;2023-01-28T14:45:07;94735.44;;;0.48;73.77
71107;BME280;58763;47.982;11.516;2023-01-28T14:55:55;94738.53;;;0.45;74.04
71107;BME280;58763;47.982;11.516;2023-01-28T14:58:28;94738.56;;;0.38;74.17
71107;BME280;58763;47.982;11.516;2023-01-28T15:00:58;94745.53;;;0.39;73.96
71107;BME280;58763;47.982;11.516;2023-01-28T15:03:25;94744.88;;;0.44;74.32
71107;BME280;58763;47.982;11.516;2023-01-28T15:06:02;94746.94;;;0.42;74.46
71107;BME280;58763;47.982;11.516;2023-01-28T15:08:27;94742.22;;;0.44;74.60
71107;BME280;58763;47.982;11.516;2023-01-28T15:10:53;94742.41;;;0.42;74.38
71107;BME280;58763;47.982;11.516;2023-01-28T15:13:27;94747.97;;;0.41;74.64